Time;durP1;ratioP1;P1;durP2;ratioP2;P2;SDS_P1;SDS_P2;PMS_P1;PMS_P2;Temp;Humidity;BMP_temperature;BMP_pressure;BME280_temperature;BME280_humidity;BME280_pressure;Samples;Min_cycle;Max_cycle;Signal;HPM_P1;HPM_P2
2023/02/16 00:01:53;;;;;;;19.27;10.00;;;7.20;99.90;;;;;;5048213;28;20221;-72
2023/02/16 00:04:23;;;;;;;16.27;8.48;;;7.20;99.90;;;;;;5049238;28;20200;-72
2023/02/16 00:06:52;;;;;;;12.13;8.95;;;7.20;99.90;;;;;;5051990;28;20220;-72
2023/02/16 00:09:22;;;;;;;15.65;8.40;;;7.20;99.90;;;;;;5051982;28;20225;-72
2023/02/16 00:14:40;;;;;;;12.10;8.73;;;7.20;99.90;;;;;;5055683;28;20262;-72
2023/02/16 00:17:11;;;;;;;15.30;9.63;;;7.20;99.90;;;;;;5051897;28;20225;-72
2023/02/16 00:19:41;;;;;;;10.40;7.78;;;7.20;99.90;;;;;;5050659;28;20707;-72
2023/02/16 00:22:11;;;;;;;11.02;7.90;;;7.20;99.90;;;;;;5051472;28;20893;-72
2023/02/16 00:24:39;;;;;;;16.00;9.15;;;7.20;99.90;;;;;;5042448;28;20704;-72
2023/02/16 00:27:17;;;;;;;12.63;7.63;;;7.20;99.90;;;;;;5042113;28;20893;-72
2023/02/16 00:29:46;;;;;;;9.90;7.13;;;7.20;99.90;;;;;;5050135;28;20247;-72
2023/02/16 00:32:15;;;;;;;10.05;7.53;;;7.20;99.90;;;;;;5066028;28;20235;-72
2023/02/16 00:34:44;;;;;;;12.23;9.48;;;7.20;99.90;;;;;;5051333;28;20253;-72
2023/02/16 00:37:13;;;;;;;11.80;7.40;;;7.20;99.90;;;;;;5050327;28;20222;-72
2023/02/16 00:39:43;;;;;;;10.38;8.00;;;7.20;99.90;;;;;;5053303;28;20281;-72
2023/02/16 00:42:16;;;;;;;8.60;7.05;;;7.20;99.90;;;;;;5072451;28;20258;-72
2023/02/16 00:44:48;;;;;;;9.32;6.90;;;7.10;99.90;;;;;;5068986;28;20553;-72
2023/02/16 00:47:20;;;;;;;11.50;7.90;;;7.20;99.90;;;;;;5051814;28;20245;-72
2023/02/16 00:49:50;;;;;;;9.95;7.72;;;7.20;99.90;;;;;;5049874;28;20732;-72
2023/02/16 00:52:29;;;;;;;11.82;8.25;;;7.20;99.90;;;;;;5051054;28;20228;-72
2023/02/16 00:54:59;;;;;;;9.98;7.05;;;7.20;99.90;;;;;;5044531;28;20213;-72
2023/02/16 00:57:30;;;;;;;9.50;7.25;;;7.10;99.90;;;;;;5042867;28;20202;-72
2023/02/16 01:00:05;;;;;;;8.07;7.22;;;7.20;99.90;;;;;;5056864;28;20736;-72
2023/02/16 01:02:33;;;;;;;11.13;7.57;;;7.10;99.90;;;;;;5063697;28;20202;-72
2023/02/16 01:05:02;;;;;;;9.50;6.55;;;7.20;99.90;;;;;;5043022;28;20320;-72
2023/02/16 01:13:01;;;;;;;7.93;6.35;;;7.10;99.90;;;;;;5021630;28;20207;-72
2023/02/16 01:15:30;;;;;;;8.40;6.88;;;7.10;99.90;;;;;;5062841;28;20214;-72
2023/02/16 01:18:01;;;;;;;11.93;8.20;;;7.10;99.90;;;;;;5043294;28;20194;-72
2023/02/16 01:20:29;;;;;;;8.85;6.97;;;7.10;99.90;;;;;;5061391;28;20306;-72
2023/02/16 01:22:57;;;;;;;13.43;7.57;;;7.10;99.90;;;;;;5041229;28;20189;-72
2023/02/16 01:25:26;;;;;;;10.70;7.78;;;7.10;99.90;;;;;;5048119;28;20334;-72
2023/02/16 01:27:55;;;;;;;8.05;6.45;;;7.10;99.90;;;;;;5046038;28;20255;-72
2023/02/16 01:30:25;;;;;;;13.25;7.82;;;7.20;99.90;;;;;;5039345;28;20249;-72
2023/02/16 01:32:55;;;;;;;9.43;7.93;;;7.10;99.90;;;;;;5047712;28;20252;-72
2023/02/16 01:35:30;;;;;;;12.00;8.07;;;7.10;99.90;;;;;;5042934;28;20380;-72
2023/02/16 01:37:59;;;;;;;10.02;6.80;;;7.10;99.90;;;;;;5055630;28;20192;-72
2023/02/16 01:40:40;;;;;;;12.05;7.88;;;7.10;99.90;;;;;;5046896;28;20218;-72
2023/02/16 01:43:18;;;;;;;9.70;6.80;;;7.10;99.90;;;;;;5046180;28;20229;-72
2023/02/16 01:45:55;;;;;;;10.35;8.63;;;7.10;99.90;;;;;;5036945;28;20238;-72
2023/02/16 01:48:29;;;;;;;10.15;7.50;;;7.10;99.90;;;;;;5042953;28;20305;-72
2023/02/16 01:51:05;;;;;;;11.23;7.63;;;7.10;99.90;;;;;;5034114;28;20233;-72
2023/02/16 01:53:37;;;;;;;10.80;8.05;;;7.10;99.90;;;;;;5046726;28;20202;-72
2023/02/16 01:56:15;;;;;;;8.07;6.43;;;7.10;99.90;;;;;;5045274;28;20234;-72
2023/02/16 01:58:47;;;;;;;11.00;7.75;;;7.10;99.90;;;;;;5048982;28;20233;-72
2023/02/16 02:01:42;;;;;;;9.32;7.82;;;7.10;99.90;;;;;;5052646;28;20218;-72
2023/02/16 02:07:25;;;;;;;7.35;6.55;;;7.10;99.90;;;;;;5044391;28;20726;-72
2023/02/16 02:10:02;;;;;;;11.30;6.95;;;7.10;99.90;;;;;;5046462;28;20209;-72
2023/02/16 02:12:37;;;;;;;10.65;7.45;;;7.10;99.90;;;;;;5045578;28;20203;-73
2023/02/16 02:15:08;;;;;;;9.07;7.43;;;7.10;99.90;;;;;;5063794;28;20608;-72
2023/02/16 02:17:37;;;;;;;9.57;7.35;;;7.10;99.90;;;;;;5044567;28;20213;-72
2023/02/16 02:20:16;;;;;;;9.20;6.68;;;7.10;99.90;;;;;;5048739;28;20195;-72
2023/02/16 02:23:30;;;;;;;9.50;7.07;;;7.10;99.90;;;;;;5045716;28;20669;-73
2023/02/16 02:26:36;;;;;;;7.50;6.68;;;7.10;99.90;;;;;;5039616;28;20254;-73
2023/02/16 02:29:24;;;;;;;9.15;7.25;;;7.10;99.90;;;;;;5044408;28;20299;-72
2023/02/16 02:32:00;;;;;;;9.10;6.68;;;7.00;99.90;;;;;;5044547;28;21113;-73
2023/02/16 02:34:48;;;;;;;8.57;6.65;;;7.10;99.90;;;;;;5044476;28;20733;-72
2023/02/16 02:37:26;;;;;;;7.55;6.53;;;7.00;99.90;;;;;;5044610;28;20611;-72
2023/02/16 02:40:02;;;;;;;8.05;6.35;;;7.00;99.90;;;;;;5044937;28;20186;-72
2023/02/16 02:42:37;;;;;;;11.07;6.80;;;7.10;99.90;;;;;;5047439;28;20879;-72
2023/02/16 02:45:13;;;;;;;9.85;6.78;;;7.00;99.90;;;;;;5044455;28;20259;-73
2023/02/16 02:47:46;;;;;;;8.50;7.10;;;7.10;99.90;;;;;;5044681;28;20231;-72
2023/02/16 02:50:37;;;;;;;8.80;6.80;;;7.00;99.90;;;;;;5040145;28;20214;-72
2023/02/16 02:53:13;;;;;;;12.38;7.07;;;7.00;99.90;;;;;;5045846;28;20312;-73
2023/02/16 03:01:37;;;;;;;12.15;7.75;;;7.00;99.90;;;;;;5040799;28;20250;-72
2023/02/16 03:04:08;;;;;;;9.27;7.50;;;7.00;99.90;;;;;;5059911;28;20205;-73
2023/02/16 03:06:41;;;;;;;7.22;6.50;;;7.00;99.90;;;;;;5045508;28;20506;-72
2023/02/16 03:09:13;;;;;;;10.45;6.70;;;7.00;99.90;;;;;;5050619;28;20218;-72
2023/02/16 03:14:33;;;;;;;11.02;7.88;;;7.00;99.90;;;;;;5049366;28;20233;-73
2023/02/16 03:31:11;;;;;;;12.65;8.38;;;7.00;99.90;;;;;;5058343;28;20628;-72
2023/02/16 03:33:42;;;;;;;19.23;11.23;;;6.90;99.90;;;;;;5044580;28;20616;-72
2023/02/16 03:36:10;;;;;;;13.88;9.10;;;6.90;99.90;;;;;;5047501;28;20232;-72
2023/02/16 03:38:39;;;;;;;12.05;8.55;;;7.00;99.90;;;;;;5048184;28;20220;-72
2023/02/16 03:41:08;;;;;;;9.60;8.05;;;6.90;99.90;;;;;;5047922;28;20217;-73
2023/02/16 03:43:36;;;;;;;12.45;7.78;;;6.90;99.90;;;;;;5063343;28;20225;-72
2023/02/16 03:46:05;;;;;;;12.57;8.15;;;6.90;99.90;;;;;;5053772;28;20263;-73
2023/02/16 03:48:33;;;;;;;9.93;7.05;;;6.90;99.90;;;;;;5043343;28;20286;-72
2023/02/16 03:51:03;;;;;;;8.05;6.90;;;7.00;99.90;;;;;;5047664;28;20268;-73
2023/02/16 03:53:32;;;;;;;8.25;6.70;;;7.00;99.90;;;;;;5053417;28;20205;-72
2023/02/16 03:56:00;;;;;;;10.23;7.05;;;6.90;99.90;;;;;;5047834;28;20221;-72
2023/02/16 03:58:29;;;;;;;11.48;7.95;;;6.90;99.90;;;;;;5048205;28;20739;-72
2023/02/16 04:00:58;;;;;;;8.40;6.45;;;6.90;99.90;;;;;;5047681;28;20237;-73
2023/02/16 04:03:26;;;;;;;9.48;6.80;;;6.90;99.90;;;;;;5046601;28;20190;-72
2023/02/16 04:05:55;;;;;;;9.95;7.65;;;6.90;99.90;;;;;;5055635;28;20285;-70
2023/02/16 04:08:25;;;;;;;7.57;6.03;;;6.90;99.90;;;;;;5064756;28;20206;-73
2023/02/16 04:10:55;;;;;;;9.43;6.05;;;6.90;99.90;;;;;;5062898;28;20275;-73
2023/02/16 04:13:23;;;;;;;11.23;7.70;;;6.90;99.90;;;;;;5043967;28;20282;-73
2023/02/16 04:15:51;;;;;;;9.50;6.35;;;6.90;99.90;;;;;;5044160;28;20312;-72
2023/02/16 04:18:19;;;;;;;10.43;6.95;;;6.90;99.90;;;;;;5043139;28;20202;-72
2023/02/16 04:20:48;;;;;;;7.90;7.05;;;6.90;99.90;;;;;;5062255;28;20213;-72
2023/02/16 04:23:16;;;;;;;12.57;8.60;;;6.90;99.90;;;;;;5047470;28;20200;-72
2023/02/16 04:25:46;;;;;;;9.10;6.90;;;6.90;99.90;;;;;;5045036;28;20313;-72
2023/02/16 04:28:14;;;;;;;11.73;7.30;;;7.00;99.90;;;;;;5042718;28;20202;-72
2023/02/16 04:30:42;;;;;;;10.32;6.65;;;6.90;99.90;;;;;;5045612;28;20715;-72
2023/02/16 04:33:11;;;;;;;7.40;6.57;;;6.90;99.90;;;;;;5043472;28;20197;-72
2023/02/16 04:35:39;;;;;;;10.27;6.45;;;6.90;99.90;;;;;;5062748;28;20240;-73
2023/02/16 04:38:08;;;;;;;8.30;6.43;;;6.90;99.90;;;;;;5050078;28;21017;-72
2023/02/16 04:40:36;;;;;;;8.82;6.65;;;6.90;99.90;;;;;;5049030;28;20594;-72
2023/02/16 04:43:06;;;;;;;12.63;6.25;;;6.90;99.90;;;;;;5065379;28;20755;-73
2023/02/16 04:45:34;;;;;;;8.88;6.60;;;6.90;99.90;;;;;;5049760;28;21307;-73
2023/02/16 04:48:02;;;;;;;10.38;7.50;;;6.90;99.90;;;;;;5049234;28;20561;-72
2023/02/16 04:50:31;;;;;;;8.38;6.45;;;6.90;99.90;;;;;;5067200;28;20247;-72
2023/02/16 04:52:59;;;;;;;9.55;7.00;;;6.90;99.90;;;;;;5042211;28;20280;-72
2023/02/16 04:55:28;;;;;;;9.48;7.03;;;6.90;99.90;;;;;;5049382;28;20232;-73
2023/02/16 04:57:57;;;;;;;8.38;7.43;;;6.90;99.90;;;;;;5046392;28;20191;-73
2023/02/16 05:00:26;;;;;;;8.45;6.40;;;6.90;99.90;;;;;;5040587;28;20201;-73
2023/02/16 05:02:55;;;;;;;8.68;6.50;;;6.90;99.90;;;;;;5049436;28;20275;-72
2023/02/16 05:05:23;;;;;;;9.60;7.43;;;6.90;99.90;;;;;;5058168;28;20232;-72
2023/02/16 05:07:51;;;;;;;11.48;7.45;;;6.80;99.90;;;;;;5065691;28;20192;-72
2023/02/16 05:10:20;;;;;;;9.15;6.75;;;6.90;99.90;;;;;;5048672;28;20221;-72
2023/02/16 05:15:35;;;;;;;10.75;6.35;;;6.80;99.90;;;;;;5045692;28;20300;-73
2023/02/16 05:18:04;;;;;;;10.32;6.57;;;6.90;99.90;;;;;;5048249;28;20187;-72
2023/02/16 05:23:18;;;;;;;9.35;6.13;;;6.90;99.90;;;;;;5050802;28;20233;-72
2023/02/16 05:25:47;;;;;;;8.98;5.90;;;6.80;99.90;;;;;;5044434;28;20225;-72
2023/02/16 05:28:15;;;;;;;8.25;6.38;;;6.80;99.90;;;;;;5049103;28;20276;-70
2023/02/16 05:30:45;;;;;;;9.32;6.43;;;6.80;99.90;;;;;;5065768;28;20193;-70
2023/02/16 05:33:14;;;;;;;9.23;6.28;;;6.80;99.90;;;;;;5065205;28;20400;-68
2023/02/16 05:35:42;;;;;;;10.65;6.32;;;6.80;99.90;;;;;;5063645;28;20224;-70
2023/02/16 05:38:10;;;;;;;7.20;6.25;;;6.80;99.90;;;;;;5043325;28;20734;-70
2023/02/16 05:40:39;;;;;;;9.05;6.15;;;6.80;99.90;;;;;;5066072;28;20194;-70
2023/02/16 05:43:07;;;;;;;7.40;6.03;;;6.80;99.90;;;;;;5040141;28;20193;-70
2023/02/16 05:45:38;;;;;;;7.32;5.75;;;6.80;99.90;;;;;;5048716;28;20221;-70
2023/02/16 05:48:07;;;;;;;8.13;5.68;;;6.80;99.90;;;;;;5047249;28;20211;-70
2023/02/16 05:50:36;;;;;;;10.73;7.05;;;6.80;99.90;;;;;;5047366;28;20348;-70
2023/02/16 05:53:05;;;;;;;11.00;8.25;;;6.80;99.90;;;;;;5044969;28;20218;-70
2023/02/16 05:55:33;;;;;;;12.23;7.85;;;6.80;99.90;;;;;;5046355;28;20246;-70
2023/02/16 05:58:02;;;;;;;8.30;5.65;;;6.80;99.90;;;;;;5047982;28;20178;-70
2023/02/16 06:00:32;;;;;;;7.25;5.85;;;6.80;99.90;;;;;;5065962;28;20303;-70
2023/02/16 06:03:00;;;;;;;9.50;7.25;;;6.80;99.90;;;;;;5063909;28;20674;-70
2023/02/16 06:05:30;;;;;;;8.00;6.05;;;6.80;99.90;;;;;;5060571;28;20250;-70
2023/02/16 06:07:59;;;;;;;8.30;6.50;;;6.80;99.90;;;;;;5060541;28;20249;-70
2023/02/16 06:10:27;;;;;;;10.32;7.50;;;6.80;99.90;;;;;;5043269;28;20222;-70
2023/02/16 06:12:56;;;;;;;7.88;6.43;;;6.80;99.90;;;;;;5042447;28;20217;-70
2023/02/16 06:15:25;;;;;;;8.10;6.65;;;6.70;99.90;;;;;;5062191;28;20340;-71
2023/02/16 06:17:54;;;;;;;10.95;5.97;;;6.80;99.90;;;;;;5062050;28;21028;-70
2023/02/16 06:20:22;;;;;;;7.55;6.07;;;6.70;99.90;;;;;;5040835;28;20216;-69
2023/02/16 06:22:52;;;;;;;9.32;6.30;;;6.70;99.90;;;;;;5043587;28;20219;-70
2023/02/16 06:25:20;;;;;;;6.40;5.22;;;6.80;99.90;;;;;;5045458;28;20631;-70
2023/02/16 06:27:49;;;;;;;8.57;5.95;;;6.80;99.90;;;;;;5048186;28;20198;-71
2023/02/16 06:30:18;;;;;;;8.73;5.90;;;6.70;99.90;;;;;;5052441;28;20642;-70
2023/02/16 06:32:46;;;;;;;9.40;6.32;;;6.70;99.90;;;;;;5059479;28;20262;-70
2023/02/16 06:35:15;;;;;;;7.25;5.75;;;6.70;99.90;;;;;;5041390;28;20221;-70
2023/02/16 06:37:45;;;;;;;7.13;6.20;;;6.70;99.90;;;;;;5065579;28;20199;-70
2023/02/16 06:40:16;;;;;;;8.85;7.63;;;6.70;99.90;;;;;;5048141;28;20200;-70
2023/02/16 06:42:45;;;;;;;8.90;6.30;;;6.70;99.90;;;;;;5041960;28;20274;-70
2023/02/16 06:45:14;;;;;;;8.63;6.00;;;6.70;99.90;;;;;;5040351;28;20221;-71
2023/02/16 06:47:43;;;;;;;9.30;7.93;;;6.70;99.90;;;;;;5045951;28;20601;-70
2023/02/16 06:50:13;;;;;;;10.75;6.97;;;6.70;99.90;;;;;;5047590;28;20232;-71
2023/02/16 06:52:41;;;;;;;12.15;7.70;;;6.70;99.90;;;;;;5046529;28;20259;-71
2023/02/16 06:55:11;;;;;;;7.78;6.00;;;6.70;99.90;;;;;;5042542;28;20210;-73
2023/02/16 06:57:41;;;;;;;7.78;6.07;;;6.70;99.90;;;;;;5043075;28;20201;-73
2023/02/16 07:00:11;;;;;;;8.15;6.07;;;6.70;99.90;;;;;;5058361;28;20626;-73
2023/02/16 07:02:42;;;;;;;10.20;6.88;;;6.70;99.90;;;;;;5042434;28;20567;-73
2023/02/16 07:05:10;;;;;;;8.00;6.45;;;6.70;99.90;;;;;;5060116;28;20210;-73
2023/02/16 07:07:39;;;;;;;7.30;5.50;;;6.70;99.90;;;;;;5061999;28;20250;-73
2023/02/16 07:10:09;;;;;;;6.07;4.85;;;6.70;99.90;;;;;;5047162;28;20208;-73
2023/02/16 07:12:37;;;;;;;7.47;5.65;;;6.70;99.90;;;;;;5045044;28;20238;-73
2023/02/16 07:15:07;;;;;;;6.85;5.97;;;6.70;99.90;;;;;;5046700;28;20225;-73
2023/02/16 07:17:36;;;;;;;7.25;6.10;;;6.70;99.90;;;;;;5039856;28;20202;-73
2023/02/16 07:20:07;;;;;;;8.20;5.88;;;6.70;99.90;;;;;;5046241;28;20223;-71
2023/02/16 07:22:36;;;;;;;11.70;6.28;;;6.70;99.90;;;;;;5065040;28;20197;-73
2023/02/16 07:25:04;;;;;;;8.90;5.95;;;6.70;99.90;;;;;;5043600;28;20229;-73
2023/02/16 07:27:33;;;;;;;9.30;7.15;;;6.70;99.90;;;;;;5060680;28;20197;-72
2023/02/16 07:30:01;;;;;;;7.78;5.82;;;6.60;99.90;;;;;;5057563;28;20194;-71
2023/02/16 07:32:32;;;;;;;9.82;6.50;;;6.60;99.90;;;;;;5046510;28;20210;-72
2023/02/16 07:35:00;;;;;;;9.13;7.22;;;6.60;99.90;;;;;;5058283;28;20837;-71
2023/02/16 07:37:29;;;;;;;8.10;6.95;;;6.70;99.90;;;;;;5046809;28;20198;-73
2023/02/16 07:39:58;;;;;;;10.75;6.90;;;6.70;99.90;;;;;;5047980;28;20202;-73
2023/02/16 07:42:29;;;;;;;10.90;7.35;;;6.60;99.90;;;;;;5045591;28;20197;-73
2023/02/16 07:44:58;;;;;;;11.13;7.78;;;6.60;99.90;;;;;;5049425;28;20320;-72
2023/02/16 07:47:27;;;;;;;9.43;7.30;;;6.60;99.90;;;;;;5044710;28;20572;-73
2023/02/16 07:49:57;;;;;;;12.07;8.07;;;6.60;99.90;;;;;;5043320;28;20190;-73
2023/02/16 07:52:29;;;;;;;11.25;7.10;;;6.60;99.90;;;;;;5046395;28;20213;-72
2023/02/16 07:54:58;;;;;;;10.88;9.02;;;6.60;99.90;;;;;;5047805;28;20770;-72
2023/02/16 07:57:28;;;;;;;10.85;7.30;;;6.60;99.90;;;;;;5058672;28;20197;-72
2023/02/16 07:59:57;;;;;;;9.75;7.63;;;6.60;99.90;;;;;;5065290;28;20205;-72
2023/02/16 08:02:26;;;;;;;13.90;9.15;;;6.60;99.90;;;;;;5045403;28;20570;-72
2023/02/16 08:04:57;;;;;;;9.85;8.10;;;6.60;99.90;;;;;;5058649;28;20251;-72
2023/02/16 08:07:26;;;;;;;8.98;7.45;;;6.60;99.90;;;;;;5044535;28;20629;-72
2023/02/16 08:09:55;;;;;;;10.70;6.93;;;6.60;99.90;;;;;;5067885;28;20189;-72
2023/02/16 08:12:24;;;;;;;7.55;6.07;;;6.60;99.90;;;;;;5050533;28;20224;-72
2023/02/16 08:14:54;;;;;;;9.25;6.55;;;6.60;99.90;;;;;;5046282;28;21401;-72
2023/02/16 08:17:23;;;;;;;9.00;6.65;;;6.60;99.90;;;;;;5063663;28;20699;-72
2023/02/16 08:19:51;;;;;;;6.05;5.43;;;6.60;99.90;;;;;;5048524;28;20194;-72
2023/02/16 08:22:22;;;;;;;7.30;5.50;;;6.60;99.90;;;;;;5049706;28;20226;-72
2023/02/16 08:24:52;;;;;;;8.30;6.05;;;6.60;99.90;;;;;;5050031;28;20595;-72
2023/02/16 08:27:21;;;;;;;9.27;6.57;;;6.60;99.90;;;;;;5066803;28;20216;-72
2023/02/16 08:29:50;;;;;;;8.70;5.70;;;6.60;99.90;;;;;;5067638;28;20189;-72
2023/02/16 08:32:19;;;;;;;8.88;5.25;;;6.60;99.90;;;;;;5067182;28;20291;-72
2023/02/16 08:34:48;;;;;;;10.50;7.00;;;6.60;99.90;;;;;;5052648;28;20662;-72
2023/02/16 08:37:17;;;;;;;7.88;6.30;;;6.60;99.90;;;;;;5066844;28;20217;-72
2023/02/16 08:39:47;;;;;;;7.85;6.03;;;6.60;99.90;;;;;;5049150;28;20436;-72
2023/02/16 08:42:17;;;;;;;6.00;5.40;;;6.60;99.90;;;;;;5046649;28;20750;-72
2023/02/16 08:44:45;;;;;;;6.40;5.65;;;6.60;99.90;;;;;;5049515;28;20544;-72
2023/02/16 08:47:15;;;;;;;8.30;5.95;;;6.60;99.90;;;;;;5049784;28;20220;-72
2023/02/16 08:49:44;;;;;;;11.25;6.65;;;6.60;99.90;;;;;;5049446;28;20202;-72
2023/02/16 08:52:13;;;;;;;8.30;6.50;;;6.60;99.90;;;;;;5049519;28;20227;-72
2023/02/16 08:54:42;;;;;;;6.13;5.30;;;6.60;99.90;;;;;;5068142;28;20245;-72
2023/02/16 08:57:12;;;;;;;7.93;5.28;;;6.60;99.90;;;;;;5048945;28;20221;-72
2023/02/16 08:59:41;;;;;;;6.65;5.30;;;6.60;99.90;;;;;;5046289;28;20196;-72
2023/02/16 09:02:11;;;;;;;7.13;5.35;;;6.60;99.90;;;;;;5045170;28;20225;-72
2023/02/16 09:04:40;;;;;;;6.30;4.38;;;6.60;99.90;;;;;;5046495;28;20201;-72
2023/02/16 09:07:08;;;;;;;6.40;5.25;;;6.60;99.90;;;;;;5048675;28;20221;-72
2023/02/16 09:09:37;;;;;;;6.90;5.18;;;6.60;99.90;;;;;;5049944;28;20285;-72
2023/02/16 09:12:09;;;;;;;6.72;5.40;;;6.60;99.90;;;;;;5042691;28;20216;-72
2023/02/16 09:14:39;;;;;;;7.78;5.32;;;6.60;99.90;;;;;;5063721;28;20770;-72
2023/02/16 09:17:07;;;;;;;8.02;6.13;;;6.70;99.90;;;;;;5059884;28;20221;-72
2023/02/16 09:19:37;;;;;;;7.22;5.43;;;6.70;99.90;;;;;;5065909;28;20499;-72
2023/02/16 09:22:05;;;;;;;7.78;6.45;;;6.70;99.90;;;;;;5044420;28;20240;-72
2023/02/16 09:24:34;;;;;;;10.38;6.00;;;6.70;99.90;;;;;;5067153;28;20239;-72
2023/02/16 09:27:03;;;;;;;5.63;4.90;;;6.70;99.90;;;;;;5048354;28;20210;-72
2023/02/16 09:29:31;;;;;;;5.80;5.20;;;6.70;99.90;;;;;;5050640;28;20683;-72
2023/02/16 09:32:01;;;;;;;7.32;5.30;;;6.70;99.90;;;;;;5059052;28;20224;-72
2023/02/16 09:34:30;;;;;;;8.23;5.15;;;6.70;99.90;;;;;;5064457;28;20210;-72
2023/02/16 09:36:58;;;;;;;5.95;5.03;;;6.70;99.90;;;;;;5046790;28;20218;-72
2023/02/16 09:39:27;;;;;;;6.72;5.85;;;6.60;99.90;;;;;;5042978;28;20193;-72
2023/02/16 09:42:03;;;;;;;6.95;4.85;;;6.70;99.90;;;;;;5051945;28;20233;-72
2023/02/16 09:44:47;;;;;;;5.85;4.45;;;6.60;99.90;;;;;;5064059;28;20255;-72
2023/02/16 09:47:24;;;;;;;5.43;4.93;;;6.60;99.90;;;;;;5039620;28;20734;-72
2023/02/16 09:49:55;;;;;;;6.50;5.53;;;6.70;99.90;;;;;;5045804;28;20714;-72
2023/02/16 09:52:30;;;;;;;6.90;5.22;;;6.70;99.90;;;;;;5043881;28;20213;-72
2023/02/16 09:55:00;;;;;;;7.97;6.22;;;6.60;99.90;;;;;;5049205;28;20217;-72
2023/02/16 09:57:43;;;;;;;6.43;5.30;;;6.60;99.90;;;;;;5046785;28;20189;-72
2023/02/16 10:00:23;;;;;;;6.28;4.70;;;6.60;99.90;;;;;;5063996;28;20587;-72
2023/02/16 10:03:00;;;;;;;7.13;5.07;;;6.60;99.90;;;;;;5048197;28;20296;-72
2023/02/16 10:05:32;;;;;;;7.07;5.35;;;6.60;99.90;;;;;;5036224;28;20229;-72
2023/02/16 10:08:06;;;;;;;7.35;4.68;;;6.60;99.90;;;;;;5035450;28;20729;-72
2023/02/16 10:10:45;;;;;;;6.60;5.10;;;6.60;99.90;;;;;;5048485;28;20712;-72
2023/02/16 10:13:22;;;;;;;6.70;5.35;;;6.60;99.90;;;;;;5063765;28;20205;-72
2023/02/16 10:15:53;;;;;;;6.20;4.70;;;6.60;99.90;;;;;;5044220;28;20789;-72
2023/02/16 10:18:32;;;;;;;6.82;5.40;;;6.60;99.90;;;;;;5047671;28;20278;-72
2023/02/16 10:21:05;;;;;;;5.25;4.60;;;6.60;99.90;;;;;;5058391;28;20198;-72
2023/02/16 10:23:46;;;;;;;6.70;5.20;;;6.60;99.90;;;;;;5051026;28;20207;-72
2023/02/16 10:26:24;;;;;;;8.13;5.80;;;6.60;99.90;;;;;;5029987;28;20239;-72
2023/02/16 10:28:55;;;;;;;5.45;4.50;;;6.60;99.90;;;;;;5061811;28;20196;-72
2023/02/16 10:31:30;;;;;;;6.47;4.60;;;6.60;99.90;;;;;;5046351;28;20339;-72
2023/02/16 10:34:17;;;;;;;6.10;5.05;;;6.60;99.90;;;;;;5049998;28;20836;-72
2023/02/16 10:37:08;;;;;;;7.32;5.25;;;6.60;99.90;;;;;;5046516;28;20233;-72
2023/02/16 10:39:43;;;;;;;9.50;4.97;;;6.60;99.90;;;;;;5063776;28;20288;-72
2023/02/16 10:42:21;;;;;;;5.25;4.72;;;6.60;99.90;;;;;;5043397;28;20219;-72
2023/02/16 10:45:02;;;;;;;6.07;5.47;;;6.60;99.90;;;;;;5047163;28;20214;-72
2023/02/16 10:47:35;;;;;;;5.78;5.07;;;6.60;99.90;;;;;;5067371;28;20222;-72
2023/02/16 10:50:15;;;;;;;8.15;5.18;;;6.60;99.90;;;;;;5051410;28;20542;-72
2023/02/16 10:52:44;;;;;;;4.50;4.10;;;6.60;99.90;;;;;;5049265;28;20247;-72
2023/02/16 10:55:13;;;;;;;7.40;5.13;;;6.60;99.90;;;;;;5065318;28;20784;-72
2023/02/16 10:57:41;;;;;;;7.55;5.22;;;6.60;99.90;;;;;;5042710;28;20292;-72
2023/02/16 11:00:16;;;;;;;5.70;5.15;;;6.60;99.90;;;;;;5049686;28;20884;-72
2023/02/16 11:02:48;;;;;;;7.65;5.05;;;6.60;99.90;;;;;;5068846;28;20228;-72
2023/02/16 11:05:35;;;;;;;6.03;5.30;;;6.60;99.90;;;;;;5040425;28;21799;-73
2023/02/16 11:08:04;;;;;;;6.13;5.18;;;6.60;99.90;;;;;;5039574;28;20190;-72
2023/02/16 11:10:44;;;;;;;6.20;5.10;;;6.60;99.90;;;;;;5066002;28;20216;-72
2023/02/16 11:13:26;;;;;;;7.45;4.68;;;6.60;99.90;;;;;;5055631;28;20558;-72
2023/02/16 11:15:56;;;;;;;6.55;4.70;;;6.60;99.90;;;;;;5062352;28;20274;-72
2023/02/16 11:18:36;;;;;;;5.38;4.75;;;6.60;99.90;;;;;;5064362;28;20185;-72
2023/02/16 11:21:08;;;;;;;6.00;5.00;;;6.50;99.90;;;;;;5054120;28;20416;-72
2023/02/16 11:23:42;;;;;;;5.65;4.55;;;6.60;99.90;;;;;;5046632;28;20628;-72
2023/02/16 11:26:23;;;;;;;5.28;4.40;;;6.60;99.90;;;;;;5047269;28;20319;-72
2023/02/16 11:28:52;;;;;;;5.47;4.88;;;6.60;99.90;;;;;;5043959;28;20190;-72
2023/02/16 11:31:26;;;;;;;4.05;3.65;;;6.60;99.90;;;;;;5041247;28;20737;-72
2023/02/16 11:33:59;;;;;;;8.02;4.75;;;6.50;99.90;;;;;;5045397;28;20190;-72
2023/02/16 11:36:33;;;;;;;5.68;4.55;;;6.60;99.90;;;;;;5064034;28;20232;-72
2023/02/16 11:39:05;;;;;;;5.43;4.57;;;6.60;99.90;;;;;;5039377;28;20273;-72
2023/02/16 11:41:35;;;;;;;5.35;4.55;;;6.50;99.90;;;;;;5042999;28;20316;-72
2023/02/16 11:44:04;;;;;;;7.03;4.80;;;6.60;99.90;;;;;;5039458;28;20200;-72
2023/02/16 11:46:40;;;;;;;7.07;4.75;;;6.60;99.90;;;;;;5063289;28;20229;-72
2023/02/16 11:49:22;;;;;;;6.05;5.55;;;6.60;99.90;;;;;;5052701;28;20212;-72
2023/02/16 11:51:52;;;;;;;7.85;5.20;;;6.60;99.90;;;;;;5063526;28;20226;-72
2023/02/16 11:57:09;;;;;;;6.25;4.60;;;6.60;99.90;;;;;;5041554;28;20217;-72
2023/02/16 11:59:39;;;;;;;5.63;4.45;;;6.50;99.90;;;;;;5044524;28;20681;-72
2023/02/16 12:02:37;;;;;;;5.55;4.68;;;6.50;99.90;;;;;;5058216;28;20639;-72
2023/02/16 12:05:25;;;;;;;5.93;4.63;;;6.60;99.90;;;;;;4984753;28;20230;-72
2023/02/16 12:08:21;;;;;;;5.55;4.20;;;6.60;99.90;;;;;;5046230;28;20220;-72
2023/02/16 12:11:04;;;;;;;7.53;5.68;;;6.50;99.90;;;;;;5045425;28;20641;-72
2023/02/16 12:13:41;;;;;;;5.90;5.30;;;6.50;99.90;;;;;;5036174;28;20267;-73
2023/02/16 12:16:23;;;;;;;5.55;3.92;;;6.60;99.90;;;;;;5039189;28;20231;-72
2023/02/16 12:19:03;;;;;;;5.72;4.40;;;6.50;99.90;;;;;;5040518;28;20241;-73
2023/02/16 12:21:39;;;;;;;13.45;8.70;;;6.60;99.90;;;;;;5040641;28;20453;-72
2023/02/16 12:24:20;;;;;;;10.10;8.35;;;6.60;99.90;;;;;;5055036;28;20737;-70
2023/02/16 12:26:51;;;;;;;11.23;7.43;;;6.70;99.90;;;;;;5036034;28;20721;-70
2023/02/16 12:29:34;;;;;;;9.55;6.70;;;6.70;99.90;;;;;;5025262;28;20194;-70
2023/02/16 12:32:29;;;;;;;6.72;5.75;;;6.70;99.90;;;;;;5042741;28;20224;-70
2023/02/16 12:35:09;;;;;;;10.15;7.93;;;6.70;99.90;;;;;;5036486;28;20304;-69
2023/02/16 12:37:45;;;;;;;10.77;7.30;;;6.70;99.90;;;;;;5046803;28;20560;-70
2023/02/16 12:40:27;;;;;;;10.63;7.10;;;6.70;99.90;;;;;;5061945;28;20649;-70
2023/02/16 12:43:22;;;;;;;9.88;6.75;;;6.70;99.90;;;;;;5064069;28;20196;-70
2023/02/16 12:45:53;;;;;;;9.73;7.30;;;6.60;99.90;;;;;;5059926;28;20220;-70
2023/02/16 12:48:39;;;;;;;7.93;6.72;;;6.70;99.90;;;;;;5039230;28;20202;-70
2023/02/16 12:51:14;;;;;;;10.68;6.45;;;6.60;99.90;;;;;;5063588;28;20232;-70
2023/02/16 12:53:48;;;;;;;8.52;5.88;;;6.60;99.90;;;;;;5024283;28;20244;-70
2023/02/16 12:56:24;;;;;;;8.68;7.50;;;6.60;99.90;;;;;;5061515;28;20229;-70
2023/02/16 12:59:00;;;;;;;7.65;6.13;;;6.60;99.90;;;;;;5044448;28;20193;-70
2023/02/16 13:01:33;;;;;;;7.60;6.05;;;6.60;99.90;;;;;;5044299;28;20228;-70
2023/02/16 13:04:11;;;;;;;7.43;6.65;;;6.60;99.90;;;;;;5045685;28;20189;-70
2023/02/16 13:06:47;;;;;;;5.78;5.05;;;6.60;99.90;;;;;;5044715;28;20226;-70
2023/02/16 13:09:26;;;;;;;8.00;6.30;;;6.60;99.90;;;;;;5050564;28;20218;-70
2023/02/16 13:11:59;;;;;;;6.25;5.65;;;6.60;99.90;;;;;;5045609;28;20697;-70
2023/02/16 13:14:33;;;;;;;7.78;5.80;;;6.60;99.90;;;;;;5049527;28;20731;-70
2023/02/16 13:17:05;;;;;;;7.55;5.97;;;6.60;99.90;;;;;;5063128;28;20238;-70
2023/02/16 13:19:33;;;;;;;6.70;6.00;;;6.60;99.90;;;;;;5042824;28;20228;-70
2023/02/16 13:22:39;;;;;;;7.47;6.20;;;6.60;99.90;;;;;;5066693;28;20597;-70
2023/02/16 13:25:31;;;;;;;9.18;5.75;;;6.60;99.90;;;;;;5048607;28;20226;-71
2023/02/16 13:28:30;;;;;;;6.90;5.25;;;6.60;99.90;;;;;;5046425;28;20213;-70
2023/02/16 13:31:14;;;;;;;6.30;4.97;;;6.60;99.90;;;;;;5049603;28;20672;-70
2023/02/16 13:34:03;;;;;;;6.78;5.38;;;6.70;99.90;;;;;;5060879;28;20834;-70
2023/02/16 13:36:42;;;;;;;6.85;5.13;;;6.60;99.90;;;;;;5048604;28;20282;-70
2023/02/16 13:39:38;;;;;;;9.52;6.13;;;6.60;99.90;;;;;;5042629;28;20773;-70
2023/02/16 13:42:30;;;;;;;5.65;5.10;;;6.60;99.90;;;;;;5042676;28;20593;-69
2023/02/16 13:45:01;;;;;;;7.30;5.40;;;6.60;99.90;;;;;;5049160;28;20221;-70
2023/02/16 13:47:33;;;;;;;8.15;5.90;;;6.60;99.90;;;;;;5048647;28;20376;-70
2023/02/16 13:50:03;;;;;;;7.15;5.60;;;6.60;99.90;;;;;;5039330;28;20625;-68
2023/02/16 13:52:34;;;;;;;7.65;6.63;;;6.70;99.90;;;;;;5048671;28;20236;-68
2023/02/16 13:55:07;;;;;;;9.70;7.25;;;6.70;99.90;;;;;;5062875;28;20520;-68
2023/02/16 13:58:04;;;;;;;8.93;6.80;;;6.80;99.90;;;;;;5037669;28;20283;-68
2023/02/16 14:00:37;;;;;;;8.13;7.05;;;6.90;99.90;;;;;;5047423;28;20201;-65
2023/02/16 14:03:12;;;;;;;9.18;7.75;;;7.00;99.90;;;;;;5057594;28;20278;-70
2023/02/16 14:05:43;;;;;;;9.90;7.32;;;7.00;99.90;;;;;;5044898;28;20230;-69
2023/02/16 14:08:24;;;;;;;7.25;6.43;;;7.10;99.90;;;;;;5065984;28;20306;-70